createdAt,value
2019-05-02T00:01:31.951Z,64.03
2019-05-02T00:04:01.472Z,68.07
2019-05-02T00:06:31.527Z,65.03
2019-05-02T00:09:03.946Z,65.63
2019-05-02T00:11:32.831Z,64.97
2019-05-02T00:14:03.297Z,69.37
2019-05-02T00:16:32.795Z,62.87
2019-05-02T00:19:02.264Z,64.10
2019-05-02T00:21:32.886Z,71.00
2019-05-02T00:24:04.236Z,65.50
2019-05-02T00:26:33.850Z,70.30
2019-05-02T00:29:03.565Z,62.07
2019-05-02T00:31:33.244Z,68.30
2019-05-02T00:34:02.950Z,65.20
2019-05-02T00:36:32.579Z,59.77
2019-05-02T00:39:02.293Z,61.90
2019-05-02T00:41:33.167Z,66.13
2019-05-02T00:44:06.058Z,68.20
2019-05-02T00:46:34.895Z,73.63
2019-05-02T00:49:05.852Z,67.30
2019-05-02T00:51:35.344Z,58.60
2019-05-02T00:54:05.084Z,62.30
2019-05-02T00:56:34.562Z,67.63
2019-05-02T00:59:07.642Z,58.87
2019-05-02T01:01:40.148Z,59.30
2019-05-02T01:04:16.999Z,54.50
2019-05-02T01:06:49.247Z,60.07
2019-05-02T01:09:17.700Z,61.80
2019-05-02T01:11:47.149Z,62.47
2019-05-02T01:14:16.663Z,60.37
2019-05-02T01:16:49.470Z,68.87
2019-05-02T01:19:18.025Z,62.70
2019-05-02T01:21:47.520Z,58.50
2019-05-02T01:24:17.173Z,56.97
2019-05-02T01:26:51.077Z,57.00
2019-05-02T01:29:24.789Z,66.47
2019-05-02T01:31:58.079Z,64.67
2019-05-02T01:34:29.313Z,61.53
2019-05-02T01:37:01.455Z,55.40
2019-05-02T01:39:31.040Z,63.97
2019-05-02T01:42:04.223Z,62.50
2019-05-02T01:44:36.471Z,54.50
2019-05-02T01:47:02.972Z,59.37
2019-05-02T01:49:32.489Z,63.17
2019-05-02T01:52:01.974Z,58.03
2019-05-02T01:54:31.538Z,63.03
2019-05-02T01:57:03.912Z,66.23
2019-05-02T01:59:33.831Z,63.27
2019-05-02T02:02:03.597Z,67.07
2019-05-02T02:04:33.079Z,62.87
2019-05-02T02:07:02.813Z,61.97
2019-05-02T02:09:32.576Z,62.33
2019-05-02T02:12:04.911Z,63.53
2019-05-02T02:14:33.343Z,51.47
2019-05-02T02:17:02.914Z,50.73
2019-05-02T02:19:34.646Z,61.63
2019-05-02T02:22:07.113Z,56.80
2019-05-02T02:24:38.516Z,50.33
2019-05-02T02:27:08.099Z,51.03
2019-05-02T02:29:38.981Z,51.53
2019-05-02T02:32:08.857Z,51.47
2019-05-02T02:34:38.388Z,52.30
2019-05-02T02:37:13.027Z,56.50
2019-05-02T02:39:39.200Z,62.30
2019-05-02T02:42:08.990Z,61.90
2019-05-02T02:44:49.481Z,64.13
2019-05-02T02:47:20.992Z,74.27
2019-05-02T02:49:55.903Z,63.67
2019-05-02T02:52:21.647Z,66.93
2019-05-02T02:54:51.120Z,73.03
2019-05-02T02:57:26.517Z,62.60
2019-05-02T02:59:51.881Z,62.70
2019-05-02T03:02:21.448Z,71.60
2019-05-02T03:04:50.916Z,74.57
2019-05-02T03:07:25.763Z,62.97
2019-05-02T03:09:51.840Z,67.07
2019-05-02T03:12:21.217Z,68.67
2019-05-02T03:14:52.627Z,76.27
2019-05-02T03:17:26.175Z,76.77
2019-05-02T03:20:00.316Z,77.23
2019-05-02T03:22:25.082Z,80.87
2019-05-02T03:24:54.700Z,76.47
2019-05-02T03:27:29.892Z,72.33
2019-05-02T03:29:55.468Z,74.10
2019-05-02T03:32:32.722Z,77.97
2019-05-02T03:34:56.739Z,82.80
2019-05-02T03:37:26.297Z,84.67
2019-05-02T03:39:58.054Z,90.07
2019-05-02T03:42:27.244Z,80.53
2019-05-02T03:45:04.119Z,75.30
2019-05-02T03:47:28.003Z,84.30
2019-05-02T03:49:59.101Z,79.20
2019-05-02T03:52:28.687Z,86.10
2019-05-02T03:54:58.853Z,82.83
2019-05-02T03:57:33.178Z,78.80
2019-05-02T04:00:00.099Z,81.17
2019-05-02T04:02:29.665Z,72.60
2019-05-02T04:05:00.634Z,74.80
2019-05-02T04:07:39.728Z,73.03
2019-05-02T04:10:03.221Z,66.60
2019-05-02T04:12:33.958Z,65.40
2019-05-02T04:15:04.690Z,67.13
2019-05-02T04:17:37.166Z,69.50
2019-05-02T04:20:10.197Z,64.20
2019-05-02T04:22:42.851Z,76.80
2019-05-02T04:25:10.920Z,67.50
2019-05-02T04:27:41.224Z,62.23
2019-05-02T04:30:14.053Z,65.47
2019-05-02T04:32:43.133Z,70.33
2019-05-02T04:35:12.865Z,64.10
2019-05-02T04:37:43.822Z,59.73
2019-05-02T04:40:13.531Z,55.60
2019-05-02T04:42:43.086Z,62.23
2019-05-02T04:45:25.114Z,64.30
2019-05-02T04:47:54.767Z,61.77
2019-05-02T04:50:18.645Z,69.40
2019-05-02T04:52:52.508Z,65.80
2019-05-02T04:55:26.239Z,64.37
2019-05-02T04:57:51.014Z,62.17
2019-05-02T05:00:28.608Z,68.43
2019-05-02T05:02:58.260Z,67.23
2019-05-02T05:05:31.024Z,65.37
2019-05-02T05:07:59.271Z,68.70
2019-05-02T05:10:40.252Z,64.97
2019-05-02T05:13:00.167Z,67.90
2019-05-02T05:15:40.199Z,58.20
2019-05-02T05:18:04.533Z,61.67
2019-05-02T05:20:32.565Z,58.57
2019-05-02T05:23:02.243Z,59.60
2019-05-02T05:25:37.861Z,59.57
2019-05-02T05:28:09.088Z,54.50
2019-05-02T05:30:45.124Z,56.03
2019-05-02T05:33:10.447Z,53.47
2019-05-02T05:35:43.306Z,60.37
2019-05-02T05:38:11.657Z,60.80
2019-05-02T05:40:41.311Z,51.07
2019-05-02T05:43:15.473Z,61.50
2019-05-02T05:45:53.510Z,57.27
2019-05-02T05:48:13.977Z,60.73
2019-05-02T05:50:43.751Z,62.97
2019-05-02T05:53:17.305Z,62.60
2019-05-02T05:55:47.225Z,56.17
2019-05-02T05:58:18.618Z,57.80
2019-05-02T06:00:53.687Z,67.53
2019-05-02T06:03:18.876Z,60.80
2019-05-02T06:05:48.673Z,59.93
2019-05-02T06:08:19.807Z,66.10
2019-05-02T06:10:49.684Z,64.33
2019-05-02T06:13:19.442Z,60.13
2019-05-02T06:16:01.538Z,63.17
2019-05-02T06:18:20.779Z,65.53
2019-05-02T06:20:50.605Z,67.97
2019-05-02T06:23:20.412Z,63.10
2019-05-02T06:25:49.986Z,64.67
2019-05-02T06:28:19.493Z,62.40
2019-05-02T06:30:49.110Z,60.30
2019-05-02T06:33:18.738Z,61.07
2019-05-02T06:35:51.765Z,61.37
2019-05-02T06:38:21.633Z,58.70
2019-05-02T06:40:50.714Z,53.90
2019-05-02T06:43:20.224Z,56.83
2019-05-02T06:45:49.936Z,56.30
2019-05-02T06:48:19.776Z,57.73
2019-05-02T06:50:49.395Z,61.53
2019-05-02T06:53:19.173Z,54.17
2019-05-02T06:55:48.815Z,58.40
2019-05-02T06:58:18.327Z,55.30
2019-05-02T07:00:57.469Z,60.83
2019-05-02T07:03:19.246Z,63.40
2019-05-02T07:05:49.333Z,63.77
2019-05-02T07:08:19.457Z,58.70
2019-05-02T07:10:49.113Z,65.33
2019-05-02T07:13:18.718Z,64.07
2019-05-02T07:15:55.583Z,62.77
2019-05-02T07:18:32.396Z,63.27
2019-05-02T07:21:01.993Z,59.67
2019-05-02T07:23:31.469Z,59.73
2019-05-02T07:26:01.279Z,64.97
2019-05-02T07:28:31.016Z,62.23
2019-05-02T07:31:01.025Z,63.33
2019-05-02T07:33:32.431Z,63.30
2019-05-02T07:36:02.220Z,60.10
2019-05-02T07:38:31.864Z,65.23
2019-05-02T07:41:01.600Z,66.07
2019-05-02T07:43:31.259Z,63.17
2019-05-02T07:46:00.703Z,66.00
2019-05-02T07:48:30.358Z,63.80
2019-05-02T07:51:00.414Z,72.27
2019-05-02T07:53:30.047Z,66.07
2019-05-02T07:55:59.580Z,68.83
2019-05-02T07:58:29.599Z,63.50
2019-05-02T08:00:59.115Z,62.10
2019-05-02T08:03:29.457Z,60.70
2019-05-02T08:06:00.101Z,66.43
2019-05-02T08:08:31.643Z,69.47
2019-05-02T08:11:02.877Z,60.57
2019-05-02T08:13:32.067Z,65.57
2019-05-02T08:16:01.559Z,65.93
2019-05-02T08:18:31.747Z,58.27
2019-05-02T08:21:01.467Z,54.57
2019-05-02T08:23:31.168Z,60.60
2019-05-02T08:26:00.920Z,59.23
2019-05-02T08:28:32.037Z,59.50
2019-05-02T08:31:01.549Z,55.60
2019-05-02T08:33:34.894Z,49.17
2019-05-02T08:36:02.323Z,53.37
2019-05-02T08:38:31.818Z,57.23
2019-05-02T08:41:01.585Z,54.53
2019-05-02T08:43:31.431Z,55.73
2019-05-02T08:46:01.081Z,55.03
2019-05-02T08:48:31.029Z,57.00
2019-05-02T08:51:00.497Z,53.83
2019-05-02T08:53:30.003Z,54.20
2019-05-02T08:55:59.495Z,54.40
2019-05-02T08:58:29.373Z,53.63
2019-05-02T09:00:59.017Z,62.97
2019-05-02T09:03:28.572Z,52.67
2019-05-02T09:06:05.650Z,56.97
2019-05-02T09:08:29.426Z,49.87
2019-05-02T09:10:58.946Z,56.97
2019-05-02T09:13:29.540Z,54.97
2019-05-02T09:15:59.194Z,50.73
2019-05-02T09:18:35.136Z,54.67
2019-05-02T09:21:02.005Z,50.70
2019-05-02T09:23:33.142Z,57.70
2019-05-02T09:26:02.733Z,51.27
2019-05-02T09:28:32.290Z,53.47
2019-05-02T09:31:05.269Z,51.03
2019-05-02T09:33:36.816Z,47.97
2019-05-02T09:36:04.890Z,54.23
2019-05-02T09:38:34.465Z,56.07
2019-05-02T09:41:16.069Z,52.23
2019-05-02T09:43:38.965Z,52.20
2019-05-02T09:46:12.866Z,54.17
2019-05-02T09:48:39.375Z,49.70
2019-05-02T09:51:12.753Z,55.13
2019-05-02T09:53:40.258Z,53.57
2019-05-02T09:56:09.916Z,54.13
2019-05-02T09:58:39.474Z,52.70
2019-05-02T10:01:13.818Z,52.37
2019-05-02T10:03:43.414Z,50.30
2019-05-02T10:06:17.891Z,46.43
2019-05-02T10:08:46.569Z,47.37
2019-05-02T10:11:16.854Z,48.00
2019-05-02T10:13:47.105Z,47.87
2019-05-02T10:16:17.972Z,47.13
2019-05-02T10:18:48.191Z,46.90
2019-05-02T10:21:17.862Z,42.60
2019-05-02T10:23:53.695Z,41.50
2019-05-02T10:26:24.452Z,42.43
2019-05-02T10:28:53.324Z,40.97
2019-05-02T10:31:27.584Z,41.43
2019-05-02T10:33:54.480Z,44.70
2019-05-02T10:36:24.157Z,40.97
2019-05-02T10:38:59.096Z,45.03
2019-05-02T10:41:25.016Z,44.50
2019-05-02T10:43:57.752Z,40.23
2019-05-02T10:46:37.794Z,35.10
2019-05-02T10:49:12.560Z,37.93
2019-05-02T10:51:49.383Z,38.53
2019-05-02T10:54:13.334Z,38.60
2019-05-02T10:56:42.893Z,45.03
2019-05-02T10:59:12.522Z,38.00
2019-05-02T11:01:57.293Z,37.63
2019-05-02T11:04:29.300Z,38.70
2019-05-02T11:06:59.050Z,38.57
2019-05-02T11:22:56.024Z,36.30
2019-05-02T11:25:25.772Z,36.40
2019-05-02T11:27:57.428Z,34.50
2019-05-02T11:30:26.766Z,36.10
2019-05-02T11:32:56.538Z,38.87
2019-05-02T11:35:26.264Z,38.43
2019-05-02T11:37:55.928Z,36.33
2019-05-02T11:40:25.889Z,32.97
2019-05-02T11:42:57.302Z,31.30
2019-05-02T11:45:26.819Z,33.03
2019-05-02T11:48:01.690Z,31.60
2019-05-02T11:50:33.860Z,27.80
2019-05-02T11:52:59.261Z,35.33
2019-05-02T12:03:42.283Z,31.13
2019-05-02T12:06:18.977Z,29.37
2019-05-02T12:08:45.111Z,32.27
2019-05-02T12:11:17.696Z,32.70
2019-05-02T12:13:47.375Z,35.30
2019-05-02T12:16:17.862Z,30.60
2019-05-02T12:18:47.517Z,31.60
2019-05-02T12:21:17.170Z,30.33
2019-05-02T12:23:46.778Z,35.70
2019-05-02T12:26:16.319Z,29.43
2019-05-02T12:28:46.000Z,33.70
2019-05-02T12:31:32.577Z,29.93
2019-05-02T12:34:03.496Z,31.63
2019-05-02T12:36:33.551Z,30.40
2019-05-02T12:39:04.877Z,33.70
2019-05-02T12:41:34.423Z,28.23
2019-05-02T12:44:04.371Z,32.83
2019-05-02T12:46:34.577Z,31.80
2019-05-02T12:49:04.240Z,29.77
2019-05-02T12:51:33.778Z,32.97
2019-05-02T12:54:03.671Z,29.43
2019-05-02T12:56:33.305Z,31.83
2019-05-02T12:59:02.950Z,35.17
2019-05-02T13:01:33.112Z,32.57
2019-05-02T13:04:05.021Z,35.73
2019-05-02T13:06:37.100Z,30.90
2019-05-02T13:09:09.775Z,39.50
2019-05-02T13:11:44.370Z,32.37
2019-05-02T13:14:18.952Z,30.07
2019-05-02T13:16:44.524Z,28.90
2019-05-02T13:19:14.187Z,30.20
2019-05-02T13:22:02.262Z,35.00
2019-05-02T13:24:34.031Z,29.33
2019-05-02T13:27:04.551Z,28.20
2019-05-02T13:29:34.169Z,29.53
2019-05-02T13:32:08.834Z,32.63
2019-05-02T13:34:57.122Z,31.77
2019-05-02T13:37:28.008Z,30.13
2019-05-02T13:40:05.079Z,31.93
2019-05-02T13:42:34.652Z,33.00
2019-05-02T13:45:12.602Z,29.27
2019-05-02T13:47:42.618Z,29.13
2019-05-02T13:50:13.031Z,28.93
2019-05-02T13:52:45.200Z,30.73
2019-05-02T13:55:15.688Z,29.37
2019-05-02T13:57:46.942Z,34.90
2019-05-02T14:00:19.296Z,31.77
2019-05-02T14:02:51.980Z,34.13
2019-05-02T14:05:22.325Z,28.93
2019-05-02T14:07:57.111Z,32.03
2019-05-02T14:10:26.742Z,30.10
2019-05-02T14:13:00.518Z,29.80
2019-05-02T14:15:32.400Z,30.10
2019-05-02T14:18:02.630Z,31.63
2019-05-02T14:20:33.054Z,30.53
2019-05-02T14:23:02.757Z,29.37
2019-05-02T14:25:32.423Z,28.60
2019-05-02T14:28:02.918Z,33.00
2019-05-02T14:30:39.521Z,30.63
2019-05-02T14:33:06.089Z,34.20
2019-05-02T14:35:43.117Z,29.47
2019-05-02T14:38:14.205Z,33.80
2019-05-02T14:41:02.789Z,31.03
2019-05-02T14:43:53.907Z,32.20
2019-05-02T14:46:29.035Z,32.47
2019-05-02T14:48:57.334Z,32.13
2019-05-02T14:51:27.926Z,35.13
2019-05-02T14:54:03.571Z,37.20
2019-05-02T14:56:37.503Z,35.00
2019-05-02T14:59:09.160Z,37.30
2019-05-02T15:01:42.179Z,37.07
2019-05-02T15:04:12.923Z,33.80
2019-05-02T15:06:47.274Z,34.30
2019-05-02T15:09:16.647Z,37.03
2019-05-02T15:12:03.378Z,36.87
2019-05-02T15:14:35.812Z,40.10
2019-05-02T15:17:08.043Z,39.07
2019-05-02T15:19:37.866Z,41.63
2019-05-02T15:22:07.846Z,39.30
2019-05-02T15:24:38.094Z,41.33
2019-05-02T15:27:13.261Z,44.17
2019-05-02T15:29:39.269Z,44.70
2019-05-02T15:32:16.469Z,43.50
2019-05-02T15:34:56.468Z,43.07
2019-05-02T15:37:27.318Z,57.50
2019-05-02T15:42:28.408Z,62.77
2019-05-02T15:45:01.860Z,73.20
2019-05-02T15:47:29.597Z,70.83
2019-05-02T15:49:59.107Z,74.47
2019-05-02T15:52:30.243Z,82.40
2019-05-02T15:55:02.103Z,73.37
2019-05-02T15:57:38.073Z,85.57
2019-05-02T16:00:05.299Z,85.40
2019-05-02T16:02:34.903Z,91.50
2019-05-02T16:05:07.004Z,85.47
2019-05-02T16:07:38.011Z,85.40
2019-05-02T16:10:13.113Z,91.10
2019-05-02T16:12:44.545Z,90.50
2019-05-02T16:15:21.241Z,88.63
2019-05-02T16:17:46.643Z,87.00
2019-05-02T16:20:18.262Z,79.90
2019-05-02T16:22:49.852Z,83.43
2019-05-02T16:25:24.337Z,86.77
2019-05-02T16:27:52.854Z,87.73
2019-05-02T16:30:24.124Z,78.30
2019-05-02T16:33:02.669Z,75.97
2019-05-02T16:35:34.077Z,88.00
2019-05-02T16:38:03.771Z,85.57
2019-05-02T16:40:34.885Z,85.63
2019-05-02T16:43:04.781Z,89.57
2019-05-02T16:45:34.437Z,92.90
2019-05-02T16:48:04.090Z,96.77
2019-05-02T16:50:36.694Z,89.97
2019-05-02T16:53:05.002Z,89.33
2019-05-02T16:55:34.619Z,93.67
2019-05-02T16:58:06.909Z,90.27
2019-05-02T17:00:36.813Z,89.77
2019-05-02T17:03:07.115Z,92.50
2019-05-02T17:05:39.331Z,90.53
2019-05-02T17:08:18.614Z,102.80
2019-05-02T17:10:53.720Z,97.07
2019-05-02T17:13:27.597Z,57.93
2019-05-02T17:15:54.580Z,43.87
2019-05-02T17:18:24.241Z,54.33
2019-05-02T17:20:56.751Z,62.03
2019-05-02T17:23:25.107Z,59.07
2019-05-02T17:25:54.625Z,48.50
2019-05-02T17:28:24.169Z,51.40
2019-05-02T17:30:53.782Z,48.87
2019-05-02T17:33:23.584Z,46.07
2019-05-02T17:35:54.374Z,41.17
2019-05-02T17:38:29.023Z,35.60
2019-05-02T17:40:59.165Z,28.40
2019-05-02T17:43:26.813Z,26.03
2019-05-02T17:45:56.571Z,26.40
2019-05-02T17:48:26.256Z,30.80
2019-05-02T17:50:59.353Z,32.00
2019-05-02T17:53:33.803Z,39.67
2019-05-02T17:56:01.845Z,59.60
2019-05-02T17:58:31.885Z,41.10
2019-05-02T18:01:03.322Z,30.23
2019-05-02T18:03:35.365Z,26.43
2019-05-02T18:06:07.641Z,26.90
2019-05-02T18:08:36.048Z,27.33
2019-05-02T18:11:05.886Z,32.00
2019-05-02T18:13:35.596Z,32.00
2019-05-02T18:16:07.688Z,38.33
2019-05-02T18:18:37.483Z,38.17
2019-05-02T18:21:08.452Z,39.50
2019-05-02T18:23:39.528Z,48.37
2019-05-02T18:26:09.184Z,50.63
2019-05-02T18:28:46.943Z,52.50
2019-05-02T18:31:12.062Z,52.87
2019-05-02T18:33:42.513Z,61.27
2019-05-02T18:36:12.292Z,58.57
2019-05-02T18:38:41.907Z,60.23
2019-05-02T18:41:12.054Z,58.57
2019-05-02T18:43:45.211Z,64.67
2019-05-02T18:46:16.726Z,69.40
2019-05-02T18:48:49.119Z,64.00
2019-05-02T18:51:19.026Z,67.10
2019-05-02T18:53:48.863Z,71.47
2019-05-02T18:56:18.493Z,68.47
2019-05-02T18:58:48.090Z,71.43
2019-05-02T19:01:20.770Z,80.73
2019-05-02T19:03:52.615Z,72.90
2019-05-02T19:06:22.025Z,64.10
2019-05-02T19:08:55.105Z,75.40
2019-05-02T19:11:26.761Z,75.17
2019-05-02T19:13:57.431Z,78.63
2019-05-02T19:16:28.670Z,65.67
2019-05-02T19:18:58.608Z,66.10
2019-05-02T19:21:32.089Z,77.07
2019-05-02T19:27:09.392Z,69.07
2019-05-02T19:29:38.955Z,78.20
2019-05-02T19:32:12.026Z,70.47
2019-05-02T19:34:41.719Z,80.33
2019-05-02T19:37:12.140Z,79.67
2019-05-02T19:39:46.937Z,74.53
2019-05-02T19:42:16.999Z,72.63
2019-05-02T19:44:45.345Z,76.07
2019-05-02T19:47:17.474Z,80.63
2019-05-02T19:49:47.398Z,81.20
2019-05-02T19:52:17.736Z,78.70
2019-05-02T19:54:47.520Z,70.30
2019-05-02T19:57:22.034Z,77.73
2019-05-02T19:59:48.602Z,74.60
2019-05-02T20:02:18.252Z,70.70
2019-05-02T20:04:47.915Z,78.90
2019-05-02T20:07:17.516Z,69.70
2019-05-02T20:09:47.491Z,73.73
2019-05-02T20:12:17.139Z,77.20
2019-05-02T20:14:47.614Z,70.03
2019-05-02T20:17:20.225Z,80.40
2019-05-02T20:19:50.454Z,71.83
2019-05-02T20:22:22.271Z,87.47
2019-05-02T20:24:56.873Z,75.67
2019-05-02T20:27:24.194Z,72.67
2019-05-02T20:29:53.921Z,76.73
2019-05-02T20:32:23.686Z,84.63
2019-05-02T20:34:53.285Z,88.60
2019-05-02T20:37:22.995Z,81.87
2019-05-02T20:39:52.739Z,83.30
2019-05-02T21:08:13.606Z,21.27
2019-05-02T21:10:44.927Z,21.67
2019-05-02T21:13:14.733Z,25.70
2019-05-02T21:15:45.011Z,23.37
2019-05-02T21:18:14.919Z,20.97
2019-05-02T21:21:08.153Z,22.53
2019-05-02T21:23:52.794Z,23.73
2019-05-02T21:32:16.757Z,14.20
2019-05-02T21:47:10.787Z,15.77
2019-05-02T21:49:57.170Z,12.60
2019-05-02T21:52:44.133Z,16.30
2019-05-02T21:55:18.534Z,9.57
2019-05-02T21:57:48.255Z,12.80
2019-05-02T22:00:38.601Z,9.80
2019-05-02T22:03:09.131Z,9.13
2019-05-02T22:05:39.218Z,9.80
2019-05-02T22:08:08.729Z,14.27
2019-05-02T22:10:38.314Z,12.17
2019-05-02T22:13:07.872Z,12.57
2019-05-02T22:15:37.435Z,11.07
2019-05-02T22:50:16.125Z,8.33
2019-05-02T22:52:45.640Z,8.67
2019-05-02T22:55:15.196Z,9.30
2019-05-02T22:57:45.430Z,8.43
2019-05-02T23:00:15.536Z,8.57
2019-05-02T23:02:45.040Z,8.73
2019-05-02T23:05:15.075Z,13.67
2019-05-02T23:07:44.582Z,7.13
2019-05-02T23:10:14.657Z,7.70
2019-05-02T23:12:44.177Z,11.53
2019-05-02T23:15:13.999Z,12.27
2019-05-02T23:17:43.636Z,10.67
2019-05-02T23:20:13.530Z,8.30
2019-05-02T23:22:43.151Z,8.53
2019-05-02T23:25:22.640Z,10.10
2019-05-02T23:27:53.957Z,9.07
2019-05-02T23:30:24.877Z,9.20
2019-05-02T23:32:54.412Z,8.90
2019-05-02T23:35:24.132Z,9.23
2019-05-02T23:37:54.037Z,12.73
2019-05-02T23:40:24.031Z,11.00
2019-05-02T23:42:53.493Z,9.80
2019-05-02T23:45:23.125Z,8.97
2019-05-02T23:47:52.905Z,9.50
2019-05-02T23:50:23.053Z,10.40
2019-05-02T23:52:52.949Z,10.23
2019-05-02T23:55:22.927Z,8.90
2019-05-02T23:57:52.585Z,8.80
